sensor_id;sensor_type;location;lat;lon;timestamp;pressure;altitude;pressure_sealevel;temperature;humidity
64610;BME280;51019;46.090;6.350;2023-02-03T00:02:25;98291.84;;;-3.27;100.00
64610;BME280;51019;46.090;6.350;2023-02-03T00:04:53;98281.69;;;-3.35;100.00
64610;BME280;51019;46.090;6.350;2023-02-03T00:07:20;98276.50;;;-3.28;100.00
64610;BME280;51019;46.090;6.350;2023-02-03T00:09:47;98290.13;;;-3.25;100.00
64610;BME280;51019;46.090;6.350;2023-02-03T00:12:15;98271.41;;;-3.33;100.00
64610;BME280;51019;46.090;6.350;2023-02-03T00:14:44;98279.97;;;-3.34;100.00
64610;BME280;51019;46.090;6.350;2023-02-03T00:17:11;98281.59;;;-3.27;100.00
64610;BME280;51019;46.090;6.350;2023-02-03T00:19:39;98258.59;;;-3.32;100.00
64610;BME280;51019;46.090;6.350;2023-02-03T00:22:07;98287.72;;;-3.39;100.00
64610;BME280;51019;46.090;6.350;2023-02-03T00:24:34;98245.91;;;-3.47;100.00
64610;BME280;51019;46.090;6.350;2023-02-03T00:27:01;98286.91;;;-3.42;100.00
64610;BME280;51019;46.090;6.350;2023-02-03T00:29:29;98236.69;;;-3.63;100.00
64610;BME280;51019;46.090;6.350;2023-02-03T00:31:58;98241.88;;;-3.69;100.00
64610;BME280;51019;46.090;6.350;2023-02-03T00:34:27;98292.06;;;-3.48;100.00
64610;BME280;51019;46.090;6.350;2023-02-03T00:36:55;98264.81;;;-3.58;100.00
64610;BME280;51019;46.090;6.350;2023-02-03T00:39:23;98264.91;;;-3.66;100.00
64610;BME280;51019;46.090;6.350;2023-02-03T00:41:50;98187.63;;;-4.12;100.00
64610;BME280;51019;46.090;6.350;2023-02-03T00:44:18;98179.09;;;-4.16;100.00
64610;BME280;51019;46.090;6.350;2023-02-03T00:46:45;98298.84;;;-3.40;100.00
64610;BME280;51019;46.090;6.350;2023-02-03T00:49:14;98293.63;;;-3.32;100.00
64610;BME280;51019;46.090;6.350;2023-02-03T00:51:41;98277.50;;;-3.42;100.00
64610;BME280;51019;46.090;6.350;2023-02-03T00:54:09;98291.03;;;-3.29;100.00
64610;BME280;51019;46.090;6.350;2023-02-03T00:56:36;98299.84;;;-3.59;100.00
64610;BME280;51019;46.090;6.350;2023-02-03T00:59:04;98249.00;;;-4.02;100.00
64610;BME280;51019;46.090;6.350;2023-02-03T01:01:31;98249.94;;;-4.12;100.00
64610;BME280;51019;46.090;6.350;2023-02-03T01:03:59;98296.59;;;-3.73;100.00
64610;BME280;51019;46.090;6.350;2023-02-03T01:06:28;98288.91;;;-3.76;100.00
64610;BME280;51019;46.090;6.350;2023-02-03T01:08:56;98290.56;;;-3.71;100.00
64610;BME280;51019;46.090;6.350;2023-02-03T01:11:25;98284.53;;;-3.63;100.00
64610;BME280;51019;46.090;6.350;2023-02-03T01:13:53;98274.31;;;-3.67;100.00
64610;BME280;51019;46.090;6.350;2023-02-03T01:16:24;98291.22;;;-3.49;100.00
64610;BME280;51019;46.090;6.350;2023-02-03T01:18:51;98270.00;;;-3.63;100.00
64610;BME280;51019;46.090;6.350;2023-02-03T01:21:20;98288.81;;;-3.64;100.00
64610;BME280;51019;46.090;6.350;2023-02-03T01:23:50;98226.81;;;-4.04;100.00
64610;BME280;51019;46.090;6.350;2023-02-03T01:26:19;98301.56;;;-3.58;100.00
64610;BME280;51019;46.090;6.350;2023-02-03T01:28:50;98293.09;;;-3.63;100.00
64610;BME280;51019;46.090;6.350;2023-02-03T01:31:19;98263.38;;;-3.84;100.00
64610;BME280;51019;46.090;6.350;2023-02-03T01:33:46;98290.53;;;-3.68;100.00
64610;BME280;51019;46.090;6.350;2023-02-03T01:36:15;98292.22;;;-3.63;100.00
64610;BME280;51019;46.090;6.350;2023-02-03T01:38:43;98297.34;;;-3.62;100.00
64610;BME280;51019;46.090;6.350;2023-02-03T01:41:14;98294.81;;;-3.65;100.00
64610;BME280;51019;46.090;6.350;2023-02-03T01:43:44;98275.16;;;-3.68;100.00
64610;BME280;51019;46.090;6.350;2023-02-03T01:46:21;98254.03;;;-3.91;100.00
64610;BME280;51019;46.090;6.350;2023-02-03T01:48:51;98263.28;;;-3.75;100.00
64610;BME280;51019;46.090;6.350;2023-02-03T01:51:19;98186.94;;;-4.35;100.00
64610;BME280;51019;46.090;6.350;2023-02-03T01:53:46;98287.22;;;-3.79;100.00
64610;BME280;51019;46.090;6.350;2023-02-03T01:56:16;98278.69;;;-3.79;100.00
64610;BME280;51019;46.090;6.350;2023-02-03T01:58:45;98270.31;;;-4.01;100.00
64610;BME280;51019;46.090;6.350;2023-02-03T02:01:13;98291.69;;;-4.02;100.00
64610;BME280;51019;46.090;6.350;2023-02-03T02:03:43;98288.28;;;-4.04;100.00
64610;BME280;51019;46.090;6.350;2023-02-03T02:06:13;98277.25;;;-4.12;100.00
64610;BME280;51019;46.090;6.350;2023-02-03T02:08:45;98293.31;;;-3.95;100.00
64610;BME280;51019;46.090;6.350;2023-02-03T02:11:15;98261.13;;;-4.26;100.00
64610;BME280;51019;46.090;6.350;2023-02-03T02:13:43;98220.31;;;-4.49;100.00
64610;BME280;51019;46.090;6.350;2023-02-03T02:16:15;98289.13;;;-4.05;100.00
64610;BME280;51019;46.090;6.350;2023-02-03T02:18:57;98289.19;;;-4.08;100.00
64610;BME280;51019;46.090;6.350;2023-02-03T02:21:47;98294.31;;;-4.10;100.00
64610;BME280;51019;46.090;6.350;2023-02-03T02:30:45;98296.09;;;-4.21;100.00
64610;BME280;51019;46.090;6.350;2023-02-03T02:33:28;98282.38;;;-4.17;100.00
64610;BME280;51019;46.090;6.350;2023-02-03T02:36:08;98265.44;;;-4.30;100.00
64610;BME280;51019;46.090;6.350;2023-02-03T02:38:48;98248.31;;;-4.25;100.00
64610;BME280;51019;46.090;6.350;2023-02-03T02:41:25;98274.88;;;-4.41;100.00
64610;BME280;51019;46.090;6.350;2023-02-03T02:43:57;98267.28;;;-4.52;100.00
64610;BME280;51019;46.090;6.350;2023-02-03T02:46:29;98276.53;;;-4.35;100.00
64610;BME280;51019;46.090;6.350;2023-02-03T02:49:03;98251.81;;;-4.40;100.00
64610;BME280;51019;46.090;6.350;2023-02-03T02:51:35;98285.84;;;-4.22;100.00
64610;BME280;51019;46.090;6.350;2023-02-03T02:54:07;98258.63;;;-4.32;100.00
64610;BME280;51019;46.090;6.350;2023-02-03T02:56:38;98302.06;;;-4.25;100.00
64610;BME280;51019;46.090;6.350;2023-02-03T02:59:07;98293.59;;;-4.30;100.00
64610;BME280;51019;46.090;6.350;2023-02-03T03:01:34;98261.31;;;-4.58;100.00
64610;BME280;51019;46.090;6.350;2023-02-03T03:04:05;98259.59;;;-4.55;100.00
64610;BME280;51019;46.090;6.350;2023-02-03T03:06:40;98305.59;;;-4.43;100.00
64610;BME280;51019;46.090;6.350;2023-02-03T03:09:11;98271.50;;;-4.51;100.00
64610;BME280;51019;46.090;6.350;2023-02-03T03:11:45;98227.34;;;-4.82;100.00
64610;BME280;51019;46.090;6.350;2023-02-03T03:14:18;98308.13;;;-4.40;100.00
64610;BME280;51019;46.090;6.350;2023-02-03T03:16:49;98297.19;;;-4.63;100.00
64610;BME280;51019;46.090;6.350;2023-02-03T03:19:21;98314.16;;;-4.44;100.00
64610;BME280;51019;46.090;6.350;2023-02-03T03:21:53;98233.38;;;-4.93;100.00
64610;BME280;51019;46.090;6.350;2023-02-03T03:24:25;98300.56;;;-4.61;100.00
64610;BME280;51019;46.090;6.350;2023-02-03T03:26:57;98300.44;;;-4.40;100.00
64610;BME280;51019;46.090;6.350;2023-02-03T03:29:30;98287.69;;;-4.46;100.00
64610;BME280;51019;46.090;6.350;2023-02-03T03:32:01;98227.28;;;-4.72;100.00
64610;BME280;51019;46.090;6.350;2023-02-03T03:34:31;98302.19;;;-4.43;100.00
64610;BME280;51019;46.090;6.350;2023-02-03T03:37:04;98281.78;;;-4.52;100.00
64610;BME280;51019;46.090;6.350;2023-02-03T03:39:40;98297.88;;;-4.38;100.00
64610;BME280;51019;46.090;6.350;2023-02-03T03:42:13;98287.75;;;-4.53;100.00
64610;BME280;51019;46.090;6.350;2023-02-03T03:44:49;98279.22;;;-4.54;100.00
64610;BME280;51019;46.090;6.350;2023-02-03T03:47:23;98276.63;;;-4.51;100.00
64610;BME280;51019;46.090;6.350;2023-02-03T03:49:55;98282.66;;;-4.58;100.00
64610;BME280;51019;46.090;6.350;2023-02-03T03:52:27;98277.56;;;-4.64;100.00
64610;BME280;51019;46.090;6.350;2023-02-03T03:54:58;98266.44;;;-4.54;100.00
64610;BME280;51019;46.090;6.350;2023-02-03T03:57:30;98263.09;;;-4.63;100.00
64610;BME280;51019;46.090;6.350;2023-02-03T04:00:01;98271.56;;;-4.58;100.00
64610;BME280;51019;46.090;6.350;2023-02-03T04:02:31;98211.31;;;-5.08;100.00
64610;BME280;51019;46.090;6.350;2023-02-03T04:05:02;98286.97;;;-4.64;100.00
64610;BME280;51019;46.090;6.350;2023-02-03T04:07:37;98157.78;;;-5.49;100.00
64610;BME280;51019;46.090;6.350;2023-02-03T04:10:06;98285.25;;;-4.68;100.00
64610;BME280;51019;46.090;6.350;2023-02-03T04:12:38;98285.25;;;-4.65;100.00
64610;BME280;51019;46.090;6.350;2023-02-03T04:15:06;98286.19;;;-4.82;100.00
64610;BME280;51019;46.090;6.350;2023-02-03T04:17:33;98293.84;;;-4.85;100.00
64610;BME280;51019;46.090;6.350;2023-02-03T04:20:03;98297.31;;;-4.89;100.00
64610;BME280;51019;46.090;6.350;2023-02-03T04:22:31;98300.66;;;-4.79;100.00
64610;BME280;51019;46.090;6.350;2023-02-03T04:24:58;98300.63;;;-4.73;100.00
64610;BME280;51019;46.090;6.350;2023-02-03T04:27:26;98230.13;;;-5.32;100.00
64610;BME280;51019;46.090;6.350;2023-02-03T04:29:53;98287.88;;;-4.81;100.00
64610;BME280;51019;46.090;6.350;2023-02-03T04:32:20;98285.38;;;-4.90;100.00
64610;BME280;51019;46.090;6.350;2023-02-03T04:34:48;98291.34;;;-4.89;100.00
64610;BME280;51019;46.090;6.350;2023-02-03T04:37:17;98287.06;;;-4.96;100.00
64610;BME280;51019;46.090;6.350;2023-02-03T04:39:45;98296.44;;;-4.94;100.00
64610;BME280;51019;46.090;6.350;2023-02-03T04:42:12;98287.91;;;-4.88;100.00
64610;BME280;51019;46.090;6.350;2023-02-03T04:44:40;98250.41;;;-4.95;100.00
64610;BME280;51019;46.090;6.350;2023-02-03T04:47:07;98271.72;;;-4.89;100.00
64610;BME280;51019;46.090;6.350;2023-02-03T04:49:35;98223.25;;;-5.12;100.00
64610;BME280;51019;46.090;6.350;2023-02-03T04:52:03;98221.53;;;-5.08;100.00
64610;BME280;51019;46.090;6.350;2023-02-03T04:54:33;98258.09;;;-4.91;100.00
64610;BME280;51019;46.090;6.350;2023-02-03T04:57:00;98254.78;;;-5.11;100.00
64610;BME280;51019;46.090;6.350;2023-02-03T04:59:28;98246.19;;;-5.01;100.00
64610;BME280;51019;46.090;6.350;2023-02-03T05:01:55;98224.13;;;-5.29;100.00
64610;BME280;51019;46.090;6.350;2023-02-03T05:04:23;98231.81;;;-5.22;100.00
64610;BME280;51019;46.090;6.350;2023-02-03T05:06:50;98235.19;;;-5.17;100.00
64610;BME280;51019;46.090;6.350;2023-02-03T05:09:17;98254.72;;;-5.02;100.00
64610;BME280;51019;46.090;6.350;2023-02-03T05:11:48;98255.63;;;-5.10;100.00
64610;BME280;51019;46.090;6.350;2023-02-03T05:14:15;98241.94;;;-5.03;100.00
64610;BME280;51019;46.090;6.350;2023-02-03T05:16:43;98232.56;;;-5.00;100.00
64610;BME280;51019;46.090;6.350;2023-02-03T05:19:10;98233.31;;;-4.78;100.00
64610;BME280;51019;46.090;6.350;2023-02-03T05:21:37;98221.38;;;-4.85;100.00
64610;BME280;51019;46.090;6.350;2023-02-03T05:24:05;98222.16;;;-4.72;100.00
64610;BME280;51019;46.090;6.350;2023-02-03T05:26:33;98209.38;;;-4.68;100.00
64610;BME280;51019;46.090;6.350;2023-02-03T05:29:02;98209.38;;;-4.68;100.00
64610;BME280;51019;46.090;6.350;2023-02-03T05:31:30;98205.94;;;-4.65;100.00
64610;BME280;51019;46.090;6.350;2023-02-03T05:33:58;98220.38;;;-4.54;100.00
64610;BME280;51019;46.090;6.350;2023-02-03T05:36:25;98225.44;;;-4.46;100.00
64610;BME280;51019;46.090;6.350;2023-02-03T05:38:52;98215.34;;;-4.69;100.00
64610;BME280;51019;46.090;6.350;2023-02-03T05:41:19;98234.28;;;-5.00;100.00
64610;BME280;51019;46.090;6.350;2023-02-03T05:44:06;98231.72;;;-5.06;100.00
64610;BME280;51019;46.090;6.350;2023-02-03T05:46:33;98225.75;;;-5.05;100.00
64610;BME280;51019;46.090;6.350;2023-02-03T05:49:01;98201.97;;;-5.21;100.00
64610;BME280;51019;46.090;6.350;2023-02-03T05:51:28;98245.31;;;-4.92;100.00
64610;BME280;51019;46.090;6.350;2023-02-03T05:54:01;98252.19;;;-5.06;100.00
64610;BME280;51019;46.090;6.350;2023-02-03T05:56:29;98211.41;;;-5.37;100.00
64610;BME280;51019;46.090;6.350;2023-02-03T05:58:56;98230.09;;;-5.23;100.00
64610;BME280;51019;46.090;6.350;2023-02-03T06:01:25;98253.91;;;-5.12;100.00
64610;BME280;51019;46.090;6.350;2023-02-03T06:03:53;98174.88;;;-5.68;100.00
64610;BME280;51019;46.090;6.350;2023-02-03T06:06:20;98248.00;;;-5.24;100.00
64610;BME280;51019;46.090;6.350;2023-02-03T06:08:47;98247.16;;;-5.28;100.00
64610;BME280;51019;46.090;6.350;2023-02-03T06:11:16;98247.13;;;-5.23;100.00
64610;BME280;51019;46.090;6.350;2023-02-03T06:13:44;98162.09;;;-5.63;100.00
64610;BME280;51019;46.090;6.350;2023-02-03T06:16:11;98215.63;;;-5.30;100.00
64610;BME280;51019;46.090;6.350;2023-02-03T06:18:40;98191.84;;;-5.45;100.00
64610;BME280;51019;46.090;6.350;2023-02-03T06:21:07;98247.06;;;-4.99;100.00
64610;BME280;51019;46.090;6.350;2023-02-03T06:23:35;98251.31;;;-4.98;100.00
64610;BME280;51019;46.090;6.350;2023-02-03T06:26:02;98259.00;;;-5.02;100.00
64610;BME280;51019;46.090;6.350;2023-02-03T06:28:30;98199.53;;;-5.56;100.00
64610;BME280;51019;46.090;6.350;2023-02-03T06:30:58;98266.75;;;-5.27;100.00
64610;BME280;51019;46.090;6.350;2023-02-03T06:33:25;98265.06;;;-5.40;100.00
64610;BME280;51019;46.090;6.350;2023-02-03T06:35:55;98267.63;;;-5.41;100.00
64610;BME280;51019;46.090;6.350;2023-02-03T06:38:22;98234.47;;;-5.58;100.00
64610;BME280;51019;46.090;6.350;2023-02-03T06:40:51;98268.44;;;-5.30;100.00
64610;BME280;51019;46.090;6.350;2023-02-03T06:43:18;98268.44;;;-5.23;100.00
64610;BME280;51019;46.090;6.350;2023-02-03T06:45:46;98272.63;;;-5.03;100.00
64610;BME280;51019;46.090;6.350;2023-02-03T06:48:14;98266.75;;;-5.30;100.00
64610;BME280;51019;46.090;6.350;2023-02-03T06:50:41;98257.44;;;-5.49;100.00
64610;BME280;51019;46.090;6.350;2023-02-03T06:53:10;98259.94;;;-5.41;100.00
64610;BME280;51019;46.090;6.350;2023-02-03T06:55:38;98152.03;;;-6.27;100.00
64610;BME280;51019;46.090;6.350;2023-02-03T06:58:05;98180.09;;;-6.04;100.00
64610;BME280;51019;46.090;6.350;2023-02-03T07:00:33;98282.97;;;-5.37;100.00
64610;BME280;51019;46.090;6.350;2023-02-03T07:03:00;98229.38;;;-5.75;100.00
64610;BME280;51019;46.090;6.350;2023-02-03T07:05:27;98288.94;;;-5.44;100.00
64610;BME280;51019;46.090;6.350;2023-02-03T07:07:55;98241.28;;;-5.69;100.00
64610;BME280;51019;46.090;6.350;2023-02-03T07:10:25;98300.81;;;-5.22;100.00
64610;BME280;51019;46.090;6.350;2023-02-03T07:12:52;98301.63;;;-5.14;100.00
64610;BME280;51019;46.090;6.350;2023-02-03T07:15:20;98300.81;;;-5.25;100.00
64610;BME280;51019;46.090;6.350;2023-02-03T07:17:47;98271.91;;;-5.42;100.00
64610;BME280;51019;46.090;6.350;2023-02-03T07:20:20;98282.06;;;-5.27;100.00
64610;BME280;51019;46.090;6.350;2023-02-03T07:22:54;98275.22;;;-5.16;100.00
64610;BME280;51019;46.090;6.350;2023-02-03T07:25:23;98244.59;;;-5.28;100.00
64610;BME280;51019;46.090;6.350;2023-02-03T07:27:52;98185.09;;;-5.66;100.00
64610;BME280;51019;46.090;6.350;2023-02-03T07:30:20;98280.34;;;-5.09;100.00
64610;BME280;51019;46.090;6.350;2023-02-03T07:32:48;98281.22;;;-5.21;100.00
64610;BME280;51019;46.090;6.350;2023-02-03T07:35:17;98290.56;;;-5.13;100.00
64610;BME280;51019;46.090;6.350;2023-02-03T07:37:48;98293.94;;;-5.04;100.00
64610;BME280;51019;46.090;6.350;2023-02-03T07:40:16;98293.94;;;-5.06;100.00
64610;BME280;51019;46.090;6.350;2023-02-03T07:42:44;98298.19;;;-5.06;100.00
64610;BME280;51019;46.090;6.350;2023-02-03T07:45:15;98302.47;;;-5.07;100.00
64610;BME280;51019;46.090;6.350;2023-02-03T07:47:43;98285.41;;;-5.05;100.00
64610;BME280;51019;46.090;6.350;2023-02-03T07:50:12;98296.44;;;-4.89;100.00
64610;BME280;51019;46.090;6.350;2023-02-03T07:52:39;98238.53;;;-5.01;100.00
64610;BME280;51019;46.090;6.350;2023-02-03T07:55:07;98301.38;;;-4.51;100.00
64610;BME280;51019;46.090;6.350;2023-02-03T07:57:35;98303.91;;;-4.47;100.00
64610;BME280;51019;46.090;6.350;2023-02-03T08:00:08;98303.84;;;-4.33;100.00
64610;BME280;51019;46.090;6.350;2023-02-03T08:02:38;98308.88;;;-4.21;100.00
64610;BME280;51019;46.090;6.350;2023-02-03T08:05:06;98310.53;;;-4.12;100.00
64610;BME280;51019;46.090;6.350;2023-02-03T08:07:33;98225.38;;;-4.40;100.00
64610;BME280;51019;46.090;6.350;2023-02-03T08:10:00;98302.59;;;-3.77;100.00
64610;BME280;51019;46.090;6.350;2023-02-03T08:12:28;98295.66;;;-3.64;100.00
64610;BME280;51019;46.090;6.350;2023-02-03T08:14:56;98309.84;;;-3.28;100.00
64610;BME280;51019;46.090;6.350;2023-02-03T08:17:23;98307.09;;;-3.12;100.00
64610;BME280;51019;46.090;6.350;2023-02-03T08:19:52;98303.69;;;-3.12;100.00
64610;BME280;51019;46.090;6.350;2023-02-03T08:22:19;98301.72;;;-2.92;100.00
64610;BME280;51019;46.090;6.350;2023-02-03T08:24:47;98291.38;;;-2.83;100.00
64610;BME280;51019;46.090;6.350;2023-02-03T08:27:16;98287.69;;;-2.62;100.00
64610;BME280;51019;46.090;6.350;2023-02-03T08:29:43;98316.56;;;-2.45;100.00
64610;BME280;51019;46.090;6.350;2023-02-03T08:32:13;98317.56;;;-1.95;100.00
64610;BME280;51019;46.090;6.350;2023-02-03T08:34:41;98324.28;;;-1.85;100.00
64610;BME280;51019;46.090;6.350;2023-02-03T08:37:11;98297.41;;;-2.21;100.00
64610;BME280;51019;46.090;6.350;2023-02-03T08:39:38;98318.91;;;-1.70;100.00
64610;BME280;51019;46.090;6.350;2023-02-03T08:42:06;98319.59;;;-1.59;100.00
64610;BME280;51019;46.090;6.350;2023-02-03T08:44:34;98320.97;;;-1.41;100.00
64610;BME280;51019;46.090;6.350;2023-02-03T08:47:04;98323.19;;;-1.20;100.00
64610;BME280;51019;46.090;6.350;2023-02-03T08:49:32;98310.66;;;-0.92;100.00
64610;BME280;51019;46.090;6.350;2023-02-03T08:52:00;98313.66;;;-0.70;100.00
64610;BME280;51019;46.090;6.350;2023-02-03T08:54:30;98318.28;;;0.33;100.00
64610;BME280;51019;46.090;6.350;2023-02-03T08:56:57;98317.38;;;0.68;100.00
64610;BME280;51019;46.090;6.350;2023-02-03T08:59:25;98322.13;;;0.85;100.00
64610;BME280;51019;46.090;6.350;2023-02-03T09:01:53;98291.59;;;1.90;100.00
64610;BME280;51019;46.090;6.350;2023-02-03T09:04:21;98329.66;;;2.67;100.00
64610;BME280;51019;46.090;6.350;2023-02-03T09:06:49;98330.34;;;3.22;100.00
64610;BME280;51019;46.090;6.350;2023-02-03T09:09:19;98333.19;;;3.62;100.00
64610;BME280;51019;46.090;6.350;2023-02-03T09:11:48;98249.59;;;2.61;100.00
64610;BME280;51019;46.090;6.350;2023-02-03T09:14:15;98328.13;;;4.06;100.00
64610;BME280;51019;46.090;6.350;2023-02-03T09:16:42;98336.63;;;4.53;100.00
64610;BME280;51019;46.090;6.350;2023-02-03T09:19:10;98339.44;;;4.69;100.00
64610;BME280;51019;46.090;6.350;2023-02-03T09:21:38;98346.81;;;5.00;99.76
64610;BME280;51019;46.090;6.350;2023-02-03T09:24:06;98343.84;;;3.07;100.00
64610;BME280;51019;46.090;6.350;2023-02-03T09:26:33;98341.56;;;3.47;100.00
64610;BME280;51019;46.090;6.350;2023-02-03T09:29:02;98333.50;;;5.28;99.23
64610;BME280;51019;46.090;6.350;2023-02-03T09:31:29;98342.09;;;5.30;97.40
64610;BME280;51019;46.090;6.350;2023-02-03T09:33:58;98319.25;;;5.75;93.24
64610;BME280;51019;46.090;6.350;2023-02-03T09:36:25;98330.59;;;6.31;90.03
64610;BME280;51019;46.090;6.350;2023-02-03T09:38:53;98350.56;;;6.11;91.05
64610;BME280;51019;46.090;6.350;2023-02-03T09:41:33;98357.59;;;5.91;91.00
64610;BME280;51019;46.090;6.350;2023-02-03T09:44:07;98360.34;;;6.25;88.58
64610;BME280;51019;46.090;6.350;2023-02-03T09:46:41;98357.78;;;5.86;90.98
64610;BME280;51019;46.090;6.350;2023-02-03T09:49:15;98333.53;;;6.42;88.83
64610;BME280;51019;46.090;6.350;2023-02-03T09:51:48;98308.34;;;6.60;86.64
64610;BME280;51019;46.090;6.350;2023-02-03T09:54:19;98353.25;;;7.51;83.93
64610;BME280;51019;46.090;6.350;2023-02-03T09:56:48;98339.19;;;6.86;87.08
64610;BME280;51019;46.090;6.350;2023-02-03T09:59:19;98332.59;;;7.79;81.16
64610;BME280;51019;46.090;6.350;2023-02-03T10:01:51;98315.88;;;7.99;72.62
64610;BME280;51019;46.090;6.350;2023-02-03T10:04:31;98341.06;;;8.16;71.96
64610;BME280;51019;46.090;6.350;2023-02-03T10:07:07;98311.78;;;8.42;67.91
64610;BME280;51019;46.090;6.350;2023-02-03T10:09:48;98256.22;;;6.94;71.38
64610;BME280;51019;46.090;6.350;2023-02-03T10:12:35;98319.00;;;8.21;66.81
64610;BME280;51019;46.090;6.350;2023-02-03T10:15:19;98294.97;;;7.83;69.22
64610;BME280;51019;46.090;6.350;2023-02-03T10:17:54;98230.19;;;8.06;65.71
64610;BME280;51019;46.090;6.350;2023-02-03T10:20:27;98303.25;;;8.84;63.30
64610;BME280;51019;46.090;6.350;2023-02-03T10:23:01;98309.84;;;9.05;61.64
64610;BME280;51019;46.090;6.350;2023-02-03T10:25:30;98313.53;;;9.60;61.66
64610;BME280;51019;46.090;6.350;2023-02-03T10:28:02;98300.31;;;10.32;57.09
64610;BME280;51019;46.090;6.350;2023-02-03T10:30:36;98318.88;;;9.87;58.66
64610;BME280;51019;46.090;6.350;2023-02-03T10:33:11;98317.94;;;10.02;57.93
64610;BME280;51019;46.090;6.350;2023-02-03T10:35:47;98297.53;;;10.87;55.57
64610;BME280;51019;46.090;6.350;2023-02-03T10:38:23;98258.44;;;8.90;61.45
64610;BME280;51019;46.090;6.350;2023-02-03T10:40:55;98290.50;;;10.07;58.14
64610;BME280;51019;46.090;6.350;2023-02-03T10:43:23;98307.72;;;8.82;62.01
64610;BME280;51019;46.090;6.350;2023-02-03T10:46:09;98304.75;;;10.03;58.58
64610;BME280;51019;46.090;6.350;2023-02-03T10:48:36;98294.66;;;10.65;56.38
64610;BME280;51019;46.090;6.350;2023-02-03T10:51:09;98300.41;;;10.58;55.85
64610;BME280;51019;46.090;6.350;2023-02-03T10:53:38;98284.41;;;10.75;55.34
64610;BME280;51019;46.090;6.350;2023-02-03T10:56:08;98295.44;;;10.53;55.81
64610;BME280;51019;46.090;6.350;2023-02-03T10:58:37;98251.31;;;10.47;53.84
64610;BME280;51019;46.090;6.350;2023-02-03T11:01:10;98297.19;;;10.40;54.71
64610;BME280;51019;46.090;6.350;2023-02-03T11:03:40;98296.19;;;10.55;55.62
64610;BME280;51019;46.090;6.350;2023-02-03T11:06:12;98293.50;;;11.09;53.24
64610;BME280;51019;46.090;6.350;2023-02-03T11:08:42;98281.03;;;10.60;54.25
64610;BME280;51019;46.090;6.350;2023-02-03T11:11:13;98266.09;;;11.63;51.27
64610;BME280;51019;46.090;6.350;2023-02-03T11:13:41;98289.31;;;11.57;50.65
64610;BME280;51019;46.090;6.350;2023-02-03T11:16:13;98283.44;;;11.41;51.42
64610;BME280;51019;46.090;6.350;2023-02-03T11:19:00;98263.88;;;11.70;50.75
64610;BME280;51019;46.090;6.350;2023-02-03T11:21:30;98255.91;;;11.84;49.59
64610;BME280;51019;46.090;6.350;2023-02-03T11:24:04;98262.41;;;12.28;49.38
64610;BME280;51019;46.090;6.350;2023-02-03T11:26:35;98277.50;;;13.20;47.27
64610;BME280;51019;46.090;6.350;2023-02-03T11:29:04;98272.91;;;11.91;49.02
64610;BME280;51019;46.090;6.350;2023-02-03T11:31:35;98271.09;;;9.40;56.37
64610;BME280;51019;46.090;6.350;2023-02-03T11:34:04;98242.31;;;10.64;53.30
64610;BME280;51019;46.090;6.350;2023-02-03T11:36:33;98263.34;;;11.65;50.26
64610;BME280;51019;46.090;6.350;2023-02-03T11:39:09;98258.94;;;12.51;49.42
64610;BME280;51019;46.090;6.350;2023-02-03T11:41:38;98222.59;;;12.09;48.71
64610;BME280;51019;46.090;6.350;2023-02-03T11:44:10;98211.34;;;12.30;48.34
64610;BME280;51019;46.090;6.350;2023-02-03T11:46:41;98233.72;;;12.60;47.88
64610;BME280;51019;46.090;6.350;2023-02-03T11:49:20;98242.28;;;13.32;46.24
64610;BME280;51019;46.090;6.350;2023-02-03T11:51:55;98260.97;;;13.18;47.07
64610;BME280;51019;46.090;6.350;2023-02-03T11:54:34;98246.88;;;13.63;46.64
64610;BME280;51019;46.090;6.350;2023-02-03T11:57:18;98243.88;;;13.79;44.76
64610;BME280;51019;46.090;6.350;2023-02-03T12:00:07;98242.44;;;13.97;44.71
64610;BME280;51019;46.090;6.350;2023-02-03T12:02:51;98241.91;;;14.14;44.86
64610;BME280;51019;46.090;6.350;2023-02-03T12:05:53;98231.41;;;14.46;44.18
64610;BME280;51019;46.090;6.350;2023-02-03T12:08:39;98233.94;;;13.49;46.47
64610;BME280;51019;46.090;6.350;2023-02-03T12:11:20;98221.03;;;14.86;44.02
64610;BME280;51019;46.090;6.350;2023-02-03T12:14:06;98243.53;;;14.38;44.58
64610;BME280;51019;46.090;6.350;2023-02-03T12:19:49;98165.00;;;14.41;44.96
64610;BME280;51019;46.090;6.350;2023-02-03T12:22:28;98215.88;;;14.85;43.39
64610;BME280;51019;46.090;6.350;2023-02-03T12:25:01;98220.75;;;15.31;42.39
64610;BME280;51019;46.090;6.350;2023-02-03T12:27:40;98211.94;;;15.82;41.62
64610;BME280;51019;46.090;6.350;2023-02-03T12:30:16;98203.72;;;14.94;42.52
64610;BME280;51019;46.090;6.350;2023-02-03T12:32:50;98203.69;;;14.52;43.56
64610;BME280;51019;46.090;6.350;2023-02-03T12:35:26;98195.81;;;15.24;42.63
64610;BME280;51019;46.090;6.350;2023-02-03T12:37:59;98149.25;;;13.87;43.26
64610;BME280;51019;46.090;6.350;2023-02-03T12:40:34;98180.56;;;15.58;41.27
64610;BME280;51019;46.090;6.350;2023-02-03T12:43:18;98160.25;;;15.28;42.01
64610;BME280;51019;46.090;6.350;2023-02-03T12:45:53;98178.38;;;16.13;40.76
64610;BME280;51019;46.090;6.350;2023-02-03T12:48:22;98178.25;;;16.33;40.06
64610;BME280;51019;46.090;6.350;2023-02-03T12:50:56;98167.72;;;15.44;41.42
64610;BME280;51019;46.090;6.350;2023-02-03T12:53:27;98173.50;;;15.07;41.79
64610;BME280;51019;46.090;6.350;2023-02-03T12:55:59;98172.50;;;14.99;42.21
64610;BME280;51019;46.090;6.350;2023-02-03T12:58:32;98176.00;;;16.58;39.53
64610;BME280;51019;46.090;6.350;2023-02-03T13:01:06;98171.00;;;16.64;39.43
64610;BME280;51019;46.090;6.350;2023-02-03T13:03:44;98114.66;;;14.65;42.05
64610;BME280;51019;46.090;6.350;2023-02-03T13:06:22;98153.66;;;15.93;39.94
64610;BME280;51019;46.090;6.350;2023-02-03T13:08:56;98133.81;;;16.18;39.68
64610;BME280;51019;46.090;6.350;2023-02-03T13:11:39;98145.63;;;16.91;38.24
64610;BME280;51019;46.090;6.350;2023-02-03T13:14:16;98147.03;;;16.56;38.33
64610;BME280;51019;46.090;6.350;2023-02-03T13:16:50;98148.44;;;16.80;37.93
64610;BME280;51019;46.090;6.350;2023-02-03T13:19:21;98110.56;;;16.31;37.78
64610;BME280;51019;46.090;6.350;2023-02-03T13:21:52;98105.66;;;16.26;37.32
64610;BME280;51019;46.090;6.350;2023-02-03T13:24:23;98128.91;;;15.94;37.76